sensor_id;sensor_type;location;lat;lon;timestamp;P1;durP1;ratioP1;P2;durP2;ratioP2
52740;SDS011;38634;52.138;9.912;2023-07-22T00:02:34;12.93;;;3.13;;
52740;SDS011;38634;52.138;9.912;2023-07-22T00:05:18;15.50;;;3.47;;
52740;SDS011;38634;52.138;9.912;2023-07-22T00:08:07;16.33;;;3.70;;
52740;SDS011;38634;52.138;9.912;2023-07-22T00:10:52;15.50;;;3.13;;
52740;SDS011;38634;52.138;9.912;2023-07-22T00:13:37;15.45;;;3.20;;
52740;SDS011;38634;52.138;9.912;2023-07-22T00:16:22;17.98;;;3.80;;
52740;SDS011;38634;52.138;9.912;2023-07-22T00:19:07;16.45;;;3.65;;
52740;SDS011;38634;52.138;9.912;2023-07-22T00:21:51;12.43;;;3.00;;
52740;SDS011;38634;52.138;9.912;2023-07-22T00:24:36;14.30;;;3.28;;
52740;SDS011;38634;52.138;9.912;2023-07-22T00:27:20;21.67;;;6.90;;
52740;SDS011;38634;52.138;9.912;2023-07-22T00:30:06;18.35;;;3.70;;
52740;SDS011;38634;52.138;9.912;2023-07-22T00:32:52;15.82;;;3.33;;
52740;SDS011;38634;52.138;9.912;2023-07-22T00:35:37;17.08;;;3.55;;
52740;SDS011;38634;52.138;9.912;2023-07-22T00:38:22;16.92;;;3.45;;
52740;SDS011;38634;52.138;9.912;2023-07-22T00:41:07;19.58;;;4.40;;
52740;SDS011;38634;52.138;9.912;2023-07-22T00:43:52;16.15;;;3.33;;
52740;SDS011;38634;52.138;9.912;2023-07-22T00:46:36;14.70;;;3.58;;
52740;SDS011;38634;52.138;9.912;2023-07-22T00:49:21;20.38;;;4.35;;
52740;SDS011;38634;52.138;9.912;2023-07-22T00:52:06;14.75;;;3.50;;
52740;SDS011;38634;52.138;9.912;2023-07-22T00:54:51;15.70;;;3.45;;
52740;SDS011;38634;52.138;9.912;2023-07-22T00:57:36;16.55;;;3.58;;
52740;SDS011;38634;52.138;9.912;2023-07-22T01:00:21;11.65;;;3.05;;
52740;SDS011;38634;52.138;9.912;2023-07-22T01:03:06;15.82;;;4.18;;
52740;SDS011;38634;52.138;9.912;2023-07-22T01:05:51;16.23;;;3.50;;
52740;SDS011;38634;52.138;9.912;2023-07-22T01:08:36;16.27;;;3.60;;
52740;SDS011;38634;52.138;9.912;2023-07-22T01:11:21;17.98;;;3.42;;
52740;SDS011;38634;52.138;9.912;2023-07-22T01:14:05;14.32;;;3.13;;
52740;SDS011;38634;52.138;9.912;2023-07-22T09:02:31;20.27;;;3.97;;
52740;SDS011;38634;52.138;9.912;2023-07-22T09:05:18;11.35;;;3.20;;
52740;SDS011;38634;52.138;9.912;2023-07-22T09:08:03;16.02;;;3.10;;
52740;SDS011;38634;52.138;9.912;2023-07-22T09:10:50;15.13;;;3.30;;
52740;SDS011;38634;52.138;9.912;2023-07-22T09:13:35;16.65;;;3.55;;
52740;SDS011;38634;52.138;9.912;2023-07-22T09:16:20;15.88;;;3.15;;
52740;SDS011;38634;52.138;9.912;2023-07-22T09:19:05;16.02;;;3.42;;
52740;SDS011;38634;52.138;9.912;2023-07-22T09:21:49;13.70;;;2.65;;
52740;SDS011;38634;52.138;9.912;2023-07-22T09:24:34;16.70;;;3.75;;
52740;SDS011;38634;52.138;9.912;2023-07-22T09:27:32;17.67;;;5.88;;
52740;SDS011;38634;52.138;9.912;2023-07-22T09:33:20;16.77;;;3.00;;
52740;SDS011;38634;52.138;9.912;2023-07-22T09:36:05;17.83;;;3.58;;
52740;SDS011;38634;52.138;9.912;2023-07-22T09:39:00;15.20;;;3.00;;
52740;SDS011;38634;52.138;9.912;2023-07-22T09:41:48;13.15;;;2.63;;
52740;SDS011;38634;52.138;9.912;2023-07-22T09:44:33;16.40;;;3.35;;
52740;SDS011;38634;52.138;9.912;2023-07-22T09:47:20;25.33;;;7.13;;
52740;SDS011;38634;52.138;9.912;2023-07-22T09:50:05;13.38;;;2.80;;
52740;SDS011;38634;52.138;9.912;2023-07-22T09:52:51;22.63;;;6.03;;
52740;SDS011;38634;52.138;9.912;2023-07-22T09:55:41;49.25;;;8.88;;
52740;SDS011;38634;52.138;9.912;2023-07-22T09:58:26;37.08;;;6.97;;
52740;SDS011;38634;52.138;9.912;2023-07-22T10:01:13;26.80;;;5.30;;
52740;SDS011;38634;52.138;9.912;2023-07-22T10:03:58;40.72;;;7.45;;
52740;SDS011;38634;52.138;9.912;2023-07-22T10:06:43;50.10;;;9.13;;
52740;SDS011;38634;52.138;9.912;2023-07-22T10:09:28;33.17;;;6.78;;
52740;SDS011;38634;52.138;9.912;2023-07-22T10:12:13;26.45;;;6.22;;
52740;SDS011;38634;52.138;9.912;2023-07-22T10:14:58;38.42;;;7.32;;
52740;SDS011;38634;52.138;9.912;2023-07-22T10:17:44;42.47;;;8.13;;
52740;SDS011;38634;52.138;9.912;2023-07-22T10:20:29;30.58;;;5.85;;
52740;SDS011;38634;52.138;9.912;2023-07-22T10:23:14;20.60;;;4.60;;
52740;SDS011;38634;52.138;9.912;2023-07-22T10:25:59;43.22;;;8.00;;
52740;SDS011;38634;52.138;9.912;2023-07-22T10:28:44;46.58;;;8.73;;
52740;SDS011;38634;52.138;9.912;2023-07-22T10:31:35;19.27;;;4.45;;
52740;SDS011;38634;52.138;9.912;2023-07-22T10:34:23;30.65;;;6.10;;
52740;SDS011;38634;52.138;9.912;2023-07-22T10:37:11;46.20;;;8.50;;
52740;SDS011;38634;52.138;9.912;2023-07-22T10:40:00;13.00;;;3.38;;
52740;SDS011;38634;52.138;9.912;2023-07-22T10:43:03;29.58;;;5.80;;
52740;SDS011;38634;52.138;9.912;2023-07-22T10:45:50;27.73;;;4.97;;
52740;SDS011;38634;52.138;9.912;2023-07-22T10:48:39;47.97;;;9.52;;
52740;SDS011;38634;52.138;9.912;2023-07-22T10:51:25;28.77;;;5.82;;
52740;SDS011;38634;52.138;9.912;2023-07-22T10:54:31;54.58;;;9.80;;
52740;SDS011;38634;52.138;9.912;2023-07-22T11:00:06;38.72;;;7.38;;
52740;SDS011;38634;52.138;9.912;2023-07-22T11:03:09;29.33;;;5.72;;
52740;SDS011;38634;52.138;9.912;2023-07-22T11:05:59;50.03;;;8.68;;
52740;SDS011;38634;52.138;9.912;2023-07-22T11:08:47;21.65;;;4.30;;
52740;SDS011;38634;52.138;9.912;2023-07-22T11:11:39;30.73;;;5.38;;
52740;SDS011;38634;52.138;9.912;2023-07-22T11:14:31;45.22;;;7.80;;
52740;SDS011;38634;52.138;9.912;2023-07-22T11:17:17;34.30;;;8.85;;
52740;SDS011;38634;52.138;9.912;2023-07-22T11:20:13;41.60;;;7.18;;
52740;SDS011;38634;52.138;9.912;2023-07-22T11:22:58;19.80;;;4.25;;
52740;SDS011;38634;52.138;9.912;2023-07-22T11:25:42;27.70;;;5.43;;
52740;SDS011;38634;52.138;9.912;2023-07-22T11:28:27;43.85;;;7.00;;
52740;SDS011;38634;52.138;9.912;2023-07-22T11:31:12;39.75;;;6.80;;
52740;SDS011;38634;52.138;9.912;2023-07-22T11:33:56;28.17;;;5.55;;
52740;SDS011;38634;52.138;9.912;2023-07-22T11:36:41;25.13;;;5.15;;
52740;SDS011;38634;52.138;9.912;2023-07-22T11:39:26;45.70;;;7.72;;
52740;SDS011;38634;52.138;9.912;2023-07-22T11:42:15;38.42;;;7.05;;
52740;SDS011;38634;52.138;9.912;2023-07-22T11:45:00;21.40;;;4.93;;
52740;SDS011;38634;52.138;9.912;2023-07-22T11:47:44;29.95;;;6.22;;
52740;SDS011;38634;52.138;9.912;2023-07-22T11:50:32;50.38;;;8.68;;
52740;SDS011;38634;52.138;9.912;2023-07-22T11:53:17;41.25;;;8.35;;
52740;SDS011;38634;52.138;9.912;2023-07-22T11:56:02;19.63;;;5.00;;
52740;SDS011;38634;52.138;9.912;2023-07-22T11:58:51;33.97;;;6.82;;
52740;SDS011;38634;52.138;9.912;2023-07-22T12:01:36;49.88;;;9.25;;
52740;SDS011;38634;52.138;9.912;2023-07-22T12:04:23;27.17;;;5.78;;
52740;SDS011;38634;52.138;9.912;2023-07-22T12:07:20;32.42;;;5.47;;
52740;SDS011;38634;52.138;9.912;2023-07-22T12:10:15;23.33;;;3.97;;
52740;SDS011;38634;52.138;9.912;2023-07-22T12:13:00;22.80;;;3.78;;
52740;SDS011;38634;52.138;9.912;2023-07-22T12:15:58;20.73;;;3.63;;
52740;SDS011;38634;52.138;9.912;2023-07-22T12:18:46;21.27;;;3.78;;
52740;SDS011;38634;52.138;9.912;2023-07-22T12:21:31;18.20;;;3.28;;
52740;SDS011;38634;52.138;9.912;2023-07-22T12:24:16;15.45;;;2.65;;
52740;SDS011;38634;52.138;9.912;2023-07-22T12:27:01;20.98;;;3.47;;
52740;SDS011;38634;52.138;9.912;2023-07-22T12:29:46;17.95;;;3.67;;
52740;SDS011;38634;52.138;9.912;2023-07-22T12:32:31;13.60;;;2.63;;
52740;SDS011;38634;52.138;9.912;2023-07-22T12:35:16;10.40;;;2.05;;
52740;SDS011;38634;52.138;9.912;2023-07-22T12:38:00;15.50;;;3.10;;
52740;SDS011;38634;52.138;9.912;2023-07-22T12:40:45;13.88;;;2.70;;
52740;SDS011;38634;52.138;9.912;2023-07-22T12:43:30;11.40;;;2.53;;
52740;SDS011;38634;52.138;9.912;2023-07-22T12:46:14;17.67;;;3.42;;
52740;SDS011;38634;52.138;9.912;2023-07-22T12:49:00;14.80;;;2.97;;
52740;SDS011;38634;52.138;9.912;2023-07-22T12:51:44;10.07;;;2.15;;
52740;SDS011;38634;52.138;9.912;2023-07-22T12:54:32;15.10;;;3.15;;
52740;SDS011;38634;52.138;9.912;2023-07-22T12:57:16;22.58;;;6.22;;
52740;SDS011;38634;52.138;9.912;2023-07-22T13:00:01;14.90;;;3.35;;
52740;SDS011;38634;52.138;9.912;2023-07-22T13:02:50;10.68;;;2.60;;
52740;SDS011;38634;52.138;9.912;2023-07-22T13:05:35;17.20;;;3.58;;
52740;SDS011;38634;52.138;9.912;2023-07-22T13:08:19;15.07;;;3.33;;
52740;SDS011;38634;52.138;9.912;2023-07-22T13:11:04;12.65;;;2.70;;
52740;SDS011;38634;52.138;9.912;2023-07-22T13:13:49;14.80;;;2.95;;
52740;SDS011;38634;52.138;9.912;2023-07-22T13:16:33;15.50;;;3.30;;
52740;SDS011;38634;52.138;9.912;2023-07-22T13:19:21;10.95;;;2.55;;
52740;SDS011;38634;52.138;9.912;2023-07-22T13:22:09;15.65;;;3.20;;
52740;SDS011;38634;52.138;9.912;2023-07-22T13:24:53;16.23;;;3.13;;
52740;SDS011;38634;52.138;9.912;2023-07-22T13:27:38;10.30;;;2.47;;
52740;SDS011;38634;52.138;9.912;2023-07-22T13:30:24;14.88;;;2.70;;
52740;SDS011;38634;52.138;9.912;2023-07-22T13:33:11;14.82;;;2.92;;
52740;SDS011;38634;52.138;9.912;2023-07-22T13:35:56;16.45;;;3.03;;
52740;SDS011;38634;52.138;9.912;2023-07-22T13:38:40;14.30;;;2.65;;
52740;SDS011;38634;52.138;9.912;2023-07-22T13:41:25;17.88;;;3.63;;
52740;SDS011;38634;52.138;9.912;2023-07-22T13:44:10;10.15;;;2.22;;
52740;SDS011;38634;52.138;9.912;2023-07-22T13:46:54;24.27;;;7.63;;
52740;SDS011;38634;52.138;9.912;2023-07-22T13:49:39;14.45;;;2.88;;
52740;SDS011;38634;52.138;9.912;2023-07-22T13:52:24;14.55;;;3.35;;
52740;SDS011;38634;52.138;9.912;2023-07-22T13:55:08;15.43;;;3.33;;
52740;SDS011;38634;52.138;9.912;2023-07-22T13:57:54;15.75;;;3.35;;
52740;SDS011;38634;52.138;9.912;2023-07-22T14:00:38;13.90;;;2.72;;
52740;SDS011;38634;52.138;9.912;2023-07-22T14:03:23;12.52;;;2.58;;
52740;SDS011;38634;52.138;9.912;2023-07-22T14:06:08;14.48;;;2.90;;
52740;SDS011;38634;52.138;9.912;2023-07-22T14:08:52;14.52;;;2.92;;
52740;SDS011;38634;52.138;9.912;2023-07-22T14:11:37;14.38;;;3.88;;
52740;SDS011;38634;52.138;9.912;2023-07-22T14:14:22;15.25;;;3.53;;
52740;SDS011;38634;52.138;9.912;2023-07-22T14:17:11;15.48;;;4.38;;
52740;SDS011;38634;52.138;9.912;2023-07-22T14:19:56;17.27;;;4.00;;
52740;SDS011;38634;52.138;9.912;2023-07-22T14:22:41;16.27;;;3.40;;
52740;SDS011;38634;52.138;9.912;2023-07-22T14:25:29;11.02;;;2.72;;
52740;SDS011;38634;52.138;9.912;2023-07-22T14:28:13;18.52;;;3.97;;
52740;SDS011;38634;52.138;9.912;2023-07-22T14:30:59;9.02;;;2.15;;
52740;SDS011;38634;52.138;9.912;2023-07-22T14:33:44;14.95;;;3.25;;
52740;SDS011;38634;52.138;9.912;2023-07-22T14:36:28;13.63;;;2.63;;
52740;SDS011;38634;52.138;9.912;2023-07-22T14:39:13;14.13;;;3.05;;
52740;SDS011;38634;52.138;9.912;2023-07-22T14:41:58;15.27;;;2.88;;
52740;SDS011;38634;52.138;9.912;2023-07-22T14:44:52;20.10;;;3.97;;
52740;SDS011;38634;52.138;9.912;2023-07-22T14:47:36;16.58;;;3.60;;
52740;SDS011;38634;52.138;9.912;2023-07-22T14:50:21;11.65;;;2.50;;
52740;SDS011;38634;52.138;9.912;2023-07-22T14:53:05;18.27;;;3.60;;
52740;SDS011;38634;52.138;9.912;2023-07-22T14:55:50;15.07;;;3.05;;
52740;SDS011;38634;52.138;9.912;2023-07-22T14:58:35;14.25;;;3.22;;
52740;SDS011;38634;52.138;9.912;2023-07-22T15:01:20;14.80;;;2.72;;
52740;SDS011;38634;52.138;9.912;2023-07-22T15:04:06;15.60;;;3.13;;
52740;SDS011;38634;52.138;9.912;2023-07-22T15:06:51;12.65;;;2.55;;
52740;SDS011;38634;52.138;9.912;2023-07-22T15:09:36;15.82;;;2.90;;
52740;SDS011;38634;52.138;9.912;2023-07-22T15:12:20;12.52;;;2.60;;
52740;SDS011;38634;52.138;9.912;2023-07-22T15:15:05;17.70;;;3.72;;
52740;SDS011;38634;52.138;9.912;2023-07-22T15:17:51;18.45;;;3.45;;
52740;SDS011;38634;52.138;9.912;2023-07-22T15:20:36;16.10;;;3.13;;
52740;SDS011;38634;52.138;9.912;2023-07-22T15:23:20;14.65;;;3.00;;
52740;SDS011;38634;52.138;9.912;2023-07-22T15:26:05;15.65;;;3.08;;
52740;SDS011;38634;52.138;9.912;2023-07-22T15:28:50;17.17;;;3.55;;
52740;SDS011;38634;52.138;9.912;2023-07-22T15:31:35;17.85;;;3.47;;
52740;SDS011;38634;52.138;9.912;2023-07-22T15:34:20;14.85;;;3.13;;
52740;SDS011;38634;52.138;9.912;2023-07-22T15:37:04;13.63;;;2.88;;
52740;SDS011;38634;52.138;9.912;2023-07-22T15:39:56;13.70;;;3.58;;
52740;SDS011;38634;52.138;9.912;2023-07-22T15:42:41;13.80;;;2.83;;
52740;SDS011;38634;52.138;9.912;2023-07-22T15:45:26;13.93;;;2.72;;
52740;SDS011;38634;52.138;9.912;2023-07-22T15:48:10;17.35;;;3.13;;
52740;SDS011;38634;52.138;9.912;2023-07-22T15:50:55;18.48;;;3.40;;
52740;SDS011;38634;52.138;9.912;2023-07-22T15:53:40;14.57;;;2.78;;
52740;SDS011;38634;52.138;9.912;2023-07-22T15:56:24;13.80;;;2.83;;
52740;SDS011;38634;52.138;9.912;2023-07-22T15:59:09;16.77;;;3.83;;
52740;SDS011;38634;52.138;9.912;2023-07-22T16:01:53;10.95;;;2.47;;
52740;SDS011;38634;52.138;9.912;2023-07-22T16:04:41;10.27;;;2.03;;
52740;SDS011;38634;52.138;9.912;2023-07-22T16:07:25;18.42;;;4.80;;
52740;SDS011;38634;52.138;9.912;2023-07-22T16:10:10;16.33;;;3.28;;
52740;SDS011;38634;52.138;9.912;2023-07-22T16:12:55;15.68;;;2.80;;
52740;SDS011;38634;52.138;9.912;2023-07-22T16:15:39;14.38;;;2.78;;
52740;SDS011;38634;52.138;9.912;2023-07-22T16:18:24;15.57;;;3.15;;
52740;SDS011;38634;52.138;9.912;2023-07-22T16:21:08;14.77;;;3.00;;
52740;SDS011;38634;52.138;9.912;2023-07-22T16:23:53;13.52;;;2.67;;
52740;SDS011;38634;52.138;9.912;2023-07-22T16:26:38;15.05;;;2.75;;
52740;SDS011;38634;52.138;9.912;2023-07-22T16:29:22;15.30;;;3.28;;
52740;SDS011;38634;52.138;9.912;2023-07-22T16:32:07;15.45;;;2.92;;
52740;SDS011;38634;52.138;9.912;2023-07-22T16:34:52;15.15;;;2.90;;
52740;SDS011;38634;52.138;9.912;2023-07-22T16:37:37;15.00;;;3.42;;
52740;SDS011;38634;52.138;9.912;2023-07-22T16:40:21;14.45;;;2.65;;
52740;SDS011;38634;52.138;9.912;2023-07-22T16:43:06;15.02;;;3.08;;
52740;SDS011;38634;52.138;9.912;2023-07-22T16:45:50;14.80;;;2.97;;
52740;SDS011;38634;52.138;9.912;2023-07-22T16:48:35;17.45;;;3.33;;
52740;SDS011;38634;52.138;9.912;2023-07-22T16:51:20;13.65;;;2.78;;
52740;SDS011;38634;52.138;9.912;2023-07-22T16:54:06;14.68;;;2.53;;
52740;SDS011;38634;52.138;9.912;2023-07-22T16:56:51;16.17;;;2.83;;
52740;SDS011;38634;52.138;9.912;2023-07-22T16:59:35;14.13;;;2.50;;
52740;SDS011;38634;52.138;9.912;2023-07-22T17:02:20;14.38;;;2.67;;
52740;SDS011;38634;52.138;9.912;2023-07-22T17:05:04;11.27;;;2.65;;
52740;SDS011;38634;52.138;9.912;2023-07-22T17:07:50;12.75;;;2.45;;
52740;SDS011;38634;52.138;9.912;2023-07-22T17:10:35;15.35;;;2.83;;
52740;SDS011;38634;52.138;9.912;2023-07-22T17:13:19;15.57;;;2.83;;
52740;SDS011;38634;52.138;9.912;2023-07-22T17:16:04;15.70;;;3.03;;
52740;SDS011;38634;52.138;9.912;2023-07-22T17:18:49;12.75;;;2.58;;
52740;SDS011;38634;52.138;9.912;2023-07-22T17:21:33;17.20;;;3.28;;
52740;SDS011;38634;52.138;9.912;2023-07-22T17:24:18;12.63;;;2.58;;
52740;SDS011;38634;52.138;9.912;2023-07-22T17:27:03;18.58;;;3.53;;
52740;SDS011;38634;52.138;9.912;2023-07-22T17:29:47;14.80;;;2.88;;
52740;SDS011;38634;52.138;9.912;2023-07-22T17:32:32;14.90;;;3.03;;
52740;SDS011;38634;52.138;9.912;2023-07-22T17:35:17;15.30;;;2.90;;
52740;SDS011;38634;52.138;9.912;2023-07-22T17:38:02;14.52;;;3.05;;
52740;SDS011;38634;52.138;9.912;2023-07-22T17:40:47;15.75;;;2.97;;
52740;SDS011;38634;52.138;9.912;2023-07-22T17:43:32;14.60;;;2.85;;
52740;SDS011;38634;52.138;9.912;2023-07-22T17:46:16;14.70;;;3.35;;
52740;SDS011;38634;52.138;9.912;2023-07-22T17:49:01;14.32;;;2.65;;
52740;SDS011;38634;52.138;9.912;2023-07-22T17:51:46;16.08;;;3.30;;
52740;SDS011;38634;52.138;9.912;2023-07-22T17:54:30;14.15;;;2.45;;
52740;SDS011;38634;52.138;9.912;2023-07-22T17:57:15;18.20;;;5.07;;
52740;SDS011;38634;52.138;9.912;2023-07-22T17:59:59;14.00;;;2.90;;
52740;SDS011;38634;52.138;9.912;2023-07-22T18:02:44;11.73;;;2.58;;
52740;SDS011;38634;52.138;9.912;2023-07-22T18:05:28;13.90;;;2.72;;
52740;SDS011;38634;52.138;9.912;2023-07-22T18:08:14;14.13;;;2.90;;
52740;SDS011;38634;52.138;9.912;2023-07-22T18:10:58;12.35;;;2.42;;
52740;SDS011;38634;52.138;9.912;2023-07-22T18:13:43;15.43;;;2.92;;
52740;SDS011;38634;52.138;9.912;2023-07-22T18:16:27;15.60;;;2.97;;
52740;SDS011;38634;52.138;9.912;2023-07-22T18:19:12;16.95;;;3.22;;
52740;SDS011;38634;52.138;9.912;2023-07-22T18:21:56;16.95;;;3.15;;
52740;SDS011;38634;52.138;9.912;2023-07-22T18:24:41;16.55;;;2.90;;
52740;SDS011;38634;52.138;9.912;2023-07-22T18:27:26;19.25;;;5.47;;
52740;SDS011;38634;52.138;9.912;2023-07-22T18:30:10;14.23;;;2.65;;
52740;SDS011;38634;52.138;9.912;2023-07-22T18:32:55;11.30;;;2.30;;
52740;SDS011;38634;52.138;9.912;2023-07-22T18:35:45;13.38;;;2.67;;
52740;SDS011;38634;52.138;9.912;2023-07-22T18:38:33;11.40;;;2.40;;
52740;SDS011;38634;52.138;9.912;2023-07-22T18:41:18;14.80;;;2.78;;
52740;SDS011;38634;52.138;9.912;2023-07-22T18:44:02;13.32;;;2.45;;
52740;SDS011;38634;52.138;9.912;2023-07-22T18:46:47;14.68;;;3.05;;
52740;SDS011;38634;52.138;9.912;2023-07-22T18:49:35;13.32;;;2.60;;
52740;SDS011;38634;52.138;9.912;2023-07-22T18:52:19;12.32;;;2.22;;
52740;SDS011;38634;52.138;9.912;2023-07-22T18:55:04;18.10;;;3.65;;
52740;SDS011;38634;52.138;9.912;2023-07-22T18:57:50;10.40;;;2.22;;
52740;SDS011;38634;52.138;9.912;2023-07-22T19:00:34;14.93;;;2.90;;
52740;SDS011;38634;52.138;9.912;2023-07-22T19:03:19;13.50;;;2.72;;
52740;SDS011;38634;52.138;9.912;2023-07-22T19:06:03;14.10;;;2.92;;
52740;SDS011;38634;52.138;9.912;2023-07-22T19:08:48;15.15;;;2.83;;
52740;SDS011;38634;52.138;9.912;2023-07-22T19:11:33;15.30;;;2.78;;
52740;SDS011;38634;52.138;9.912;2023-07-22T19:14:17;15.95;;;3.03;;
52740;SDS011;38634;52.138;9.912;2023-07-22T19:17:02;15.30;;;3.20;;
52740;SDS011;38634;52.138;9.912;2023-07-22T19:19:47;15.57;;;3.00;;
52740;SDS011;38634;52.138;9.912;2023-07-22T19:22:31;15.20;;;2.83;;
52740;SDS011;38634;52.138;9.912;2023-07-22T19:25:16;15.68;;;3.00;;
52740;SDS011;38634;52.138;9.912;2023-07-22T19:28:01;13.48;;;2.58;;
52740;SDS011;38634;52.138;9.912;2023-07-22T19:30:45;16.98;;;3.30;;
52740;SDS011;38634;52.138;9.912;2023-07-22T19:33:30;13.70;;;2.67;;
52740;SDS011;38634;52.138;9.912;2023-07-22T19:36:15;17.42;;;3.33;;
52740;SDS011;38634;52.138;9.912;2023-07-22T19:38:59;16.20;;;3.38;;
52740;SDS011;38634;52.138;9.912;2023-07-22T19:41:44;14.85;;;2.88;;
52740;SDS011;38634;52.138;9.912;2023-07-22T19:44:29;15.98;;;3.15;;
52740;SDS011;38634;52.138;9.912;2023-07-22T19:47:13;17.25;;;4.45;;
52740;SDS011;38634;52.138;9.912;2023-07-22T19:49:59;14.40;;;2.80;;
52740;SDS011;38634;52.138;9.912;2023-07-22T19:52:43;15.32;;;3.22;;
52740;SDS011;38634;52.138;9.912;2023-07-22T19:55:28;14.85;;;3.05;;
52740;SDS011;38634;52.138;9.912;2023-07-22T19:58:14;17.25;;;3.42;;
52740;SDS011;38634;52.138;9.912;2023-07-22T20:00:59;14.50;;;2.70;;
52740;SDS011;38634;52.138;9.912;2023-07-22T20:03:45;17.95;;;3.58;;
52740;SDS011;38634;52.138;9.912;2023-07-22T20:06:30;18.20;;;3.47;;
52740;SDS011;38634;52.138;9.912;2023-07-22T20:09:14;17.92;;;3.42;;
52740;SDS011;38634;52.138;9.912;2023-07-22T20:11:59;15.15;;;3.08;;
52740;SDS011;38634;52.138;9.912;2023-07-22T20:14:44;17.95;;;3.78;;
52740;SDS011;38634;52.138;9.912;2023-07-22T20:17:29;19.27;;;4.65;;
52740;SDS011;38634;52.138;9.912;2023-07-22T20:20:13;18.23;;;3.58;;
52740;SDS011;38634;52.138;9.912;2023-07-22T20:22:58;14.25;;;3.25;;
52740;SDS011;38634;52.138;9.912;2023-07-22T20:25:43;17.63;;;3.47;;
52740;SDS011;38634;52.138;9.912;2023-07-22T20:28:27;16.65;;;3.13;;
52740;SDS011;38634;52.138;9.912;2023-07-22T20:31:13;17.73;;;3.42;;
52740;SDS011;38634;52.138;9.912;2023-07-22T20:33:57;13.43;;;2.53;;
52740;SDS011;38634;52.138;9.912;2023-07-22T20:36:44;12.80;;;3.05;;
52740;SDS011;38634;52.138;9.912;2023-07-22T20:39:30;17.23;;;3.05;;
52740;SDS011;38634;52.138;9.912;2023-07-22T20:42:14;15.93;;;3.03;;
52740;SDS011;38634;52.138;9.912;2023-07-22T20:44:59;17.17;;;3.38;;
52740;SDS011;38634;52.138;9.912;2023-07-22T20:47:43;15.35;;;3.55;;
52740;SDS011;38634;52.138;9.912;2023-07-22T20:50:28;15.93;;;3.00;;
52740;SDS011;38634;52.138;9.912;2023-07-22T20:53:13;15.88;;;3.17;;
52740;SDS011;38634;52.138;9.912;2023-07-22T20:55:58;16.70;;;3.20;;
52740;SDS011;38634;52.138;9.912;2023-07-22T20:58:44;15.80;;;3.15;;
52740;SDS011;38634;52.138;9.912;2023-07-22T21:01:28;17.67;;;3.00;;
52740;SDS011;38634;52.138;9.912;2023-07-22T21:04:13;18.92;;;3.50;;
52740;SDS011;38634;52.138;9.912;2023-07-22T21:06:58;14.38;;;2.65;;
52740;SDS011;38634;52.138;9.912;2023-07-22T21:09:45;17.95;;;3.20;;
52740;SDS011;38634;52.138;9.912;2023-07-22T21:12:29;12.25;;;2.60;;
52740;SDS011;38634;52.138;9.912;2023-07-22T21:15:17;19.67;;;3.20;;
52740;SDS011;38634;52.138;9.912;2023-07-22T21:18:02;11.23;;;2.30;;
52740;SDS011;38634;52.138;9.912;2023-07-22T21:20:49;18.20;;;3.30;;
52740;SDS011;38634;52.138;9.912;2023-07-22T21:23:34;18.77;;;3.53;;
52740;SDS011;38634;52.138;9.912;2023-07-22T21:26:19;17.77;;;3.20;;
52740;SDS011;38634;52.138;9.912;2023-07-22T21:29:03;13.48;;;2.55;;
52740;SDS011;38634;52.138;9.912;2023-07-22T21:31:48;13.40;;;2.65;;
52740;SDS011;38634;52.138;9.912;2023-07-22T21:34:33;18.20;;;3.50;;
52740;SDS011;38634;52.138;9.912;2023-07-22T21:37:17;17.38;;;3.78;;
52740;SDS011;38634;52.138;9.912;2023-07-22T21:40:02;16.13;;;2.92;;
52740;SDS011;38634;52.138;9.912;2023-07-22T21:42:48;22.08;;;4.47;;
52740;SDS011;38634;52.138;9.912;2023-07-22T21:45:33;18.63;;;3.15;;
52740;SDS011;38634;52.138;9.912;2023-07-22T21:48:17;19.77;;;3.60;;
52740;SDS011;38634;52.138;9.912;2023-07-22T21:51:02;20.25;;;3.25;;
52740;SDS011;38634;52.138;9.912;2023-07-22T21:53:46;17.58;;;2.92;;
52740;SDS011;38634;52.138;9.912;2023-07-22T21:56:33;16.65;;;3.33;;
52740;SDS011;38634;52.138;9.912;2023-07-22T21:59:17;18.95;;;3.28;;
52740;SDS011;38634;52.138;9.912;2023-07-22T22:02:02;20.17;;;3.47;;
52740;SDS011;38634;52.138;9.912;2023-07-22T22:04:46;19.80;;;3.53;;
52740;SDS011;38634;52.138;9.912;2023-07-22T22:07:32;19.15;;;4.07;;
52740;SDS011;38634;52.138;9.912;2023-07-22T22:10:16;16.77;;;2.88;;
52740;SDS011;38634;52.138;9.912;2023-07-22T22:13:01;22.50;;;4.45;;
52740;SDS011;38634;52.138;9.912;2023-07-22T22:15:46;16.45;;;3.03;;
52740;SDS011;38634;52.138;9.912;2023-07-22T22:18:31;19.20;;;3.28;;
52740;SDS011;38634;52.138;9.912;2023-07-22T22:21:15;16.52;;;3.47;;
52740;SDS011;38634;52.138;9.912;2023-07-22T22:24:00;19.65;;;3.40;;
52740;SDS011;38634;52.138;9.912;2023-07-22T22:26:45;14.93;;;2.75;;
52740;SDS011;38634;52.138;9.912;2023-07-22T22:29:29;18.17;;;3.17;;
52740;SDS011;38634;52.138;9.912;2023-07-22T22:32:14;16.80;;;3.00;;
52740;SDS011;38634;52.138;9.912;2023-07-22T22:34:58;18.77;;;4.20;;
52740;SDS011;38634;52.138;9.912;2023-07-22T22:37:44;16.17;;;2.92;;
52740;SDS011;38634;52.138;9.912;2023-07-22T22:40:28;19.88;;;3.63;;
52740;SDS011;38634;52.138;9.912;2023-07-22T22:43:13;18.83;;;3.42;;
52740;SDS011;38634;52.138;9.912;2023-07-22T22:45:58;16.73;;;3.58;;
52740;SDS011;38634;52.138;9.912;2023-07-22T22:48:42;13.95;;;2.65;;
52740;SDS011;38634;52.138;9.912;2023-07-22T22:51:27;15.80;;;3.17;;
52740;SDS011;38634;52.138;9.912;2023-07-22T22:54:11;12.57;;;2.95;;
52740;SDS011;38634;52.138;9.912;2023-07-22T22:56:56;16.63;;;3.45;;
52740;SDS011;38634;52.138;9.912;2023-07-22T22:59:41;17.70;;;3.17;;
52740;SDS011;38634;52.138;9.912;2023-07-22T23:02:25;21.38;;;3.50;;
52740;SDS011;38634;52.138;9.912;2023-07-22T23:05:10;18.48;;;3.92;;
52740;SDS011;38634;52.138;9.912;2023-07-22T23:07:55;16.15;;;3.28;;
52740;SDS011;38634;52.138;9.912;2023-07-22T23:10:46;12.88;;;2.70;;
52740;SDS011;38634;52.138;9.912;2023-07-22T23:13:33;18.27;;;3.60;;
52740;SDS011;38634;52.138;9.912;2023-07-22T23:16:18;14.18;;;2.90;;
52740;SDS011;38634;52.138;9.912;2023-07-22T23:19:03;11.02;;;2.35;;
52740;SDS011;38634;52.138;9.912;2023-07-22T23:21:48;16.08;;;3.35;;
52740;SDS011;38634;52.138;9.912;2023-07-22T23:24:32;17.10;;;3.95;;
52740;SDS011;38634;52.138;9.912;2023-07-22T23:27:17;20.58;;;6.40;;
52740;SDS011;38634;52.138;9.912;2023-07-22T23:30:02;15.25;;;3.20;;
52740;SDS011;38634;52.138;9.912;2023-07-22T23:32:50;15.48;;;3.67;;
52740;SDS011;38634;52.138;9.912;2023-07-22T23:35:37;14.85;;;3.25;;
52740;SDS011;38634;52.138;9.912;2023-07-22T23:38:22;13.75;;;3.53;;
52740;SDS011;38634;52.138;9.912;2023-07-22T23:41:07;14.13;;;2.95;;
52740;SDS011;38634;52.138;9.912;2023-07-22T23:43:51;12.80;;;2.80;;
52740;SDS011;38634;52.138;9.912;2023-07-22T23:46:36;15.38;;;3.38;;
52740;SDS011;38634;52.138;9.912;2023-07-22T23:49:21;17.10;;;3.28;;
52740;SDS011;38634;52.138;9.912;2023-07-22T23:52:05;15.80;;;3.35;;
52740;SDS011;38634;52.138;9.912;2023-07-22T23:54:50;14.07;;;2.80;;
52740;SDS011;38634;52.138;9.912;2023-07-22T23:57:37;15.77;;;3.03;;
